CKZ6 weather

Louise Municipal Airport
Crystal City-Pilot Mound, Manitoba, Canada

Public forecast

Using degrees Celsius for public forecast. Weather courtesy of forecast.io.

METAR (pilot weather report)

Closest report is Robertson Field, 30.5 nm (56.5 km) SE. Retrieved 2019/05/21 02:35 UTC (0 seconds ago):

KD55 210235Z AUTO 14007KT 9SM CLR A3010 RMK AO2

TAF (pilot weather forecast)

Forecast is more than 12 hours old.

Closest forecast is Southport Airport, 51.2 nm (94.8 km) NNE. Retrieved 2019/05/17 18:33 UTC (3 days ago):

TAF CYPG 171730Z 1718/1806 32005KT P6SM FEW040 SCT240 BECMG 1718/1720 03010KT FM180200 05012KT P6SM BKN200 RMK NXT FCST BY 180000Z